Time;durP1;ratioP1;P1;durP2;ratioP2;P2;SDS_P1;SDS_P2;PMS_P1;PMS_P2;Temp;Humidity;BMP_temperature;BMP_pressure;BME280_temperature;BME280_humidity;BME280_pressure;Samples;Min_cycle;Max_cycle;Signal;HPM_P1;HPM_P2
2023/09/11 00:00:19;;;;;;;6.10;2.03;;;17.50;99.90;;;16.92;100.00;101122.94;4194338;28;20032;-77
2023/09/11 00:02:20;;;;;;;3.60;1.80;;;17.50;99.90;;;16.87;100.00;101126.19;4186471;28;20017;-77
2023/09/11 00:04:21;;;;;;;4.00;1.92;;;17.40;99.90;;;16.85;100.00;101130.03;4202808;28;20496;-77
2023/09/11 00:06:22;;;;;;;2.40;1.80;;;17.40;99.90;;;16.84;100.00;101128.38;4186439;28;20029;-77
2023/09/11 00:08:23;;;;;;;3.97;2.22;;;17.30;99.90;;;16.80;100.00;101124.44;4187644;28;20036;-77
2023/09/11 00:10:24;;;;;;;5.47;2.20;;;17.30;99.90;;;16.81;100.00;101120.75;4187485;28;20094;-77
2023/09/11 00:12:25;;;;;;;4.60;2.20;;;17.30;99.90;;;16.82;100.00;101122.41;4199971;28;20033;-77
2023/09/11 00:14:27;;;;;;;5.28;2.20;;;17.30;99.90;;;16.82;100.00;101122.41;4187630;28;20057;-77
2023/09/11 00:16:28;;;;;;;4.72;2.03;;;17.30;99.90;;;16.79;100.00;101122.78;4187521;28;20028;-77
2023/09/11 00:18:29;;;;;;;3.15;1.85;;;17.30;99.90;;;16.76;100.00;101125.81;4187432;28;20029;-77
2023/09/11 00:20:30;;;;;;;4.50;2.30;;;17.30;99.90;;;16.73;100.00;101123.50;4194442;28;20020;-77
2023/09/11 00:22:31;;;;;;;5.97;2.42;;;17.30;99.90;;;16.72;100.00;101128.03;4187512;28;20091;-77
2023/09/11 00:24:31;;;;;;;2.65;2.28;;;17.20;99.90;;;16.70;100.00;101116.72;4193041;28;20032;-77
2023/09/11 00:26:32;;;;;;;4.00;2.40;;;17.20;99.90;;;16.67;100.00;101125.09;4187341;28;20029;-77
2023/09/11 00:28:33;;;;;;;4.20;2.88;;;17.20;99.90;;;16.69;100.00;101116.94;4199103;28;20450;-77
2023/09/11 00:30:36;;;;;;;5.60;2.78;;;17.20;99.90;;;16.69;100.00;101108.94;4186096;28;20025;-77
2023/09/11 00:32:37;;;;;;;5.47;2.65;;;17.20;99.90;;;16.70;100.00;101105.25;4191855;28;20502;-77
2023/09/11 00:34:38;;;;;;;4.57;2.58;;;17.20;99.90;;;16.70;100.00;101115.91;4194401;28;20036;-77
2023/09/11 00:36:39;;;;;;;4.75;2.78;;;17.20;99.90;;;16.67;100.00;101105.63;4190559;28;20063;-77
2023/09/11 00:38:40;;;;;;;5.28;2.55;;;17.20;99.90;;;16.67;100.00;101106.44;4201612;28;20416;-77
2023/09/11 00:40:40;;;;;;;3.90;2.47;;;17.20;99.90;;;16.68;100.00;101100.13;4191838;28;20103;-77
2023/09/11 00:42:41;;;;;;;4.85;2.67;;;17.20;99.90;;;16.69;100.00;101099.13;4202415;28;20086;-77
2023/09/11 00:44:42;;;;;;;6.78;3.20;;;17.20;99.90;;;16.70;100.00;101099.91;4191200;28;20452;-77
2023/09/11 00:46:43;;;;;;;5.05;2.60;;;17.20;99.90;;;16.71;100.00;101104.25;4186921;28;20048;-77
2023/09/11 00:48:44;;;;;;;4.80;2.60;;;17.20;99.90;;;16.69;100.00;101098.28;4185563;28;20495;-77
2023/09/11 00:50:46;;;;;;;3.58;2.60;;;17.20;99.90;;;16.68;100.00;101100.13;4194578;28;20025;-77
2023/09/11 00:52:48;;;;;;;3.72;2.38;;;17.20;99.90;;;16.70;100.00;101099.91;4185809;28;20036;-78
2023/09/11 00:54:51;;;;;;;5.93;2.40;;;17.20;99.90;;;16.69;100.00;101100.94;4202605;28;20112;-78
2023/09/11 00:56:52;;;;;;;5.03;2.20;;;17.20;99.90;;;16.65;100.00;101092.50;4196699;28;20039;-77
2023/09/11 00:58:53;;;;;;;3.65;2.40;;;17.20;99.90;;;16.64;100.00;101095.34;4185604;28;20029;-78
2023/09/11 01:00:54;;;;;;;3.63;2.30;;;17.10;99.90;;;16.64;100.00;101095.34;4181295;28;20484;-78
2023/09/11 01:02:57;;;;;;;3.63;2.25;;;17.10;99.90;;;16.62;100.00;101092.03;4201740;28;20051;-78
2023/09/11 01:04:59;;;;;;;5.70;2.42;;;17.10;99.90;;;16.58;100.00;101084.41;4186240;28;20021;-78
2023/09/11 01:07:00;;;;;;;3.10;2.13;;;17.10;99.90;;;16.55;100.00;101082.13;4195155;28;20021;-78
2023/09/11 01:09:03;;;;;;;3.72;2.42;;;17.10;99.90;;;16.56;100.00;101072.31;4185676;28;20079;-77
2023/09/11 01:11:04;;;;;;;3.10;1.90;;;17.10;99.90;;;16.56;100.00;101083.78;4184779;28;20035;-78
2023/09/11 01:13:05;;;;;;;3.92;2.13;;;17.00;99.90;;;16.54;100.00;101077.00;4203430;28;20029;-78
2023/09/11 01:15:08;;;;;;;4.30;2.00;;;17.10;99.90;;;16.50;100.00;101071.19;4201941;28;20116;-78
2023/09/11 01:17:47;;;;;;;3.13;2.00;;;17.00;99.90;;;16.51;100.00;101078.19;4201996;28;20025;-78
2023/09/11 01:20:09;;;;;;;5.28;2.78;;;17.00;99.90;;;16.52;100.00;101071.00;4127800;28;20043;-78
2023/09/11 01:22:44;;;;;;;4.60;2.90;;;17.00;99.90;;;16.50;100.00;101073.84;4119528;28;20027;-77
2023/09/11 01:24:57;;;;;;;4.05;2.85;;;17.00;99.90;;;16.52;100.00;101074.47;4145911;28;20129;-78
2023/09/11 01:27:39;;;;;;;5.15;3.90;;;17.00;99.90;;;16.54;100.00;101071.69;4198970;28;20031;-78
2023/09/11 01:29:41;;;;;;;5.40;3.92;;;17.00;99.90;;;16.55;100.00;101068.81;4178737;28;20044;-77
2023/09/11 01:31:44;;;;;;;6.30;3.95;;;17.10;99.90;;;16.60;100.00;101073.59;4185167;28;20036;-78
2023/09/11 01:33:51;;;;;;;6.05;3.92;;;17.10;99.90;;;16.63;100.00;101081.22;4200970;28;20137;-78
2023/09/11 01:35:52;;;;;;;5.57;3.80;;;17.10;99.90;;;16.61;100.00;101083.22;4188046;28;20079;-78
2023/09/11 01:37:55;;;;;;;4.22;2.95;;;17.10;99.90;;;16.57;100.00;101065.97;4186132;28;20505;-78
2023/09/11 01:39:56;;;;;;;7.47;4.30;;;17.10;99.90;;;16.58;100.00;101068.44;4198268;28;20503;-78
2023/09/11 01:42:09;;;;;;;5.68;3.63;;;17.10;99.90;;;16.60;100.00;101068.28;4185048;28;20112;-78
2023/09/11 01:44:29;;;;;;;6.75;4.95;;;17.10;99.90;;;16.62;100.00;101073.41;4192753;28;20391;-78
2023/09/11 01:46:32;;;;;;;8.18;5.38;;;17.10;99.90;;;16.62;100.00;101078.72;4201493;28;20080;-78
2023/09/11 01:48:33;;;;;;;7.70;5.68;;;17.10;99.90;;;16.64;100.00;101074.03;4202520;28;20070;-78
2023/09/11 01:50:36;;;;;;;8.65;7.47;;;17.10;99.90;;;16.66;100.00;101075.50;4194656;28;20090;-78
2023/09/11 01:52:37;;;;;;;11.88;6.95;;;17.20;99.90;;;16.70;100.00;101081.25;4197528;28;20032;-78
2023/09/11 01:54:39;;;;;;;9.77;7.78;;;17.20;99.90;;;16.71;100.00;101081.09;4198081;28;20090;-78
2023/09/11 01:56:40;;;;;;;10.95;8.30;;;17.20;99.90;;;16.74;100.00;101082.56;4184894;28;20033;-78
2023/09/11 01:58:42;;;;;;;11.35;7.20;;;17.20;99.90;;;16.77;100.00;101083.00;4191672;28;20039;-78
2023/09/11 02:00:43;;;;;;;10.27;6.95;;;17.30;99.90;;;16.77;100.00;101087.50;4184667;28;20029;-78
2023/09/11 02:02:44;;;;;;;11.82;6.97;;;17.30;99.90;;;16.78;100.00;101099.81;4197983;28;20063;-78
2023/09/11 02:04:45;;;;;;;8.88;6.60;;;17.30;99.90;;;16.74;100.00;101090.53;4192691;28;20021;-78
2023/09/11 02:06:47;;;;;;;9.63;7.15;;;17.30;99.90;;;16.77;100.00;101099.00;4174858;28;20078;-78
2023/09/11 02:08:48;;;;;;;8.45;6.95;;;17.30;99.90;;;16.76;100.00;101096.50;4185838;28;20460;-78
2023/09/11 02:10:49;;;;;;;9.90;6.72;;;17.30;99.90;;;16.75;100.00;101100.19;4199071;28;20033;-78
2023/09/11 02:12:50;;;;;;;7.18;6.18;;;17.30;99.90;;;16.71;100.00;101097.06;4184585;28;20036;-78
2023/09/11 02:14:51;;;;;;;9.57;6.72;;;17.20;99.90;;;16.72;100.00;101098.75;4190367;28;20036;-78
2023/09/11 02:16:51;;;;;;;10.65;7.07;;;17.20;99.90;;;16.71;100.00;101099.75;4194831;28;20103;-78
2023/09/11 02:18:52;;;;;;;9.10;6.97;;;17.20;99.90;;;16.73;100.00;101107.53;4187652;28;20037;-78
2023/09/11 02:20:53;;;;;;;12.02;7.47;;;17.20;99.90;;;16.74;100.00;101109.19;4185514;28;20511;-78
2023/09/11 02:22:54;;;;;;;11.90;8.00;;;17.20;99.90;;;16.72;100.00;101095.25;4190350;28;20028;-78
2023/09/11 02:24:55;;;;;;;15.05;9.43;;;17.20;99.90;;;16.72;100.00;101090.75;4187792;28;20021;-78
2023/09/11 02:26:56;;;;;;;15.20;9.82;;;17.20;99.90;;;16.72;100.00;101089.91;4198037;28;20039;-78
2023/09/11 02:28:59;;;;;;;13.00;9.48;;;17.30;99.90;;;16.74;100.00;101093.22;4168321;28;20512;-78
2023/09/11 02:31:00;;;;;;;13.23;9.25;;;17.30;99.90;;;16.77;100.00;101090.16;4184542;28;20025;-78
2023/09/11 02:33:03;;;;;;;12.02;9.57;;;17.30;99.90;;;16.79;100.00;101088.97;4185230;28;20024;-78
2023/09/11 02:35:04;;;;;;;16.20;9.25;;;17.30;99.90;;;16.79;100.00;101088.13;4189641;28;20024;-78
2023/09/11 02:37:05;;;;;;;12.98;10.25;;;17.30;99.90;;;16.78;100.00;101076.69;4185645;28;20111;-78
2023/09/11 02:39:06;;;;;;;11.90;9.70;;;17.30;99.90;;;16.82;100.00;101074.44;4190170;28;20446;-78
2023/09/11 02:41:07;;;;;;;11.70;9.27;;;17.30;99.90;;;16.84;100.00;101067.09;4185268;28;20025;-78
2023/09/11 02:43:08;;;;;;;9.48;8.20;;;17.30;99.90;;;16.84;100.00;101062.59;4185281;28;20021;-78
2023/09/11 02:45:09;;;;;;;12.20;8.48;;;17.40;99.90;;;16.84;100.00;101061.78;4198487;28;20675;-78
2023/09/11 02:47:10;;;;;;;12.60;10.35;;;17.40;99.90;;;16.84;100.00;101072.44;4190153;28;20550;-78
2023/09/11 02:49:11;;;;;;;12.65;9.82;;;17.40;99.90;;;16.85;100.00;101071.41;4187687;28;20025;-78
2023/09/11 02:51:12;;;;;;;14.70;10.30;;;17.40;99.90;;;16.86;100.00;101065.91;4197622;28;20372;-78
2023/09/11 02:53:16;;;;;;;17.20;10.00;;;17.40;99.90;;;16.86;100.00;101071.22;4201681;28;20522;-78
2023/09/11 02:55:17;;;;;;;10.15;7.85;;;17.40;99.90;;;16.85;100.00;101064.22;4195714;28;20025;-78
2023/09/11 02:57:18;;;;;;;9.68;6.88;;;17.40;99.90;;;16.84;100.00;101067.09;4193302;28;20111;-78
2023/09/11 02:59:19;;;;;;;11.82;8.43;;;17.40;99.90;;;16.86;100.00;101065.06;4185196;28;20040;-78
2023/09/11 03:01:20;;;;;;;12.68;8.82;;;17.40;99.90;;;16.85;100.00;101064.22;4184956;28;20029;-78
2023/09/11 03:03:21;;;;;;;13.38;10.05;;;17.40;99.90;;;16.87;100.00;101061.41;4185032;28;20447;-78
2023/09/11 03:05:22;;;;;;;13.27;10.00;;;17.40;99.90;;;16.86;100.00;101049.06;4192105;28;20480;-78
2023/09/11 03:07:23;;;;;;;20.98;11.50;;;17.40;99.90;;;16.85;100.00;101042.91;4185080;28;20032;-78
2023/09/11 03:09:26;;;;;;;25.80;13.98;;;17.40;99.90;;;16.88;100.00;101036.38;4184972;28;20028;-78
2023/09/11 03:11:27;;;;;;;18.05;10.45;;;17.40;99.90;;;16.90;100.00;101039.69;4185194;28;20574;-78
2023/09/11 03:13:28;;;;;;;14.23;9.73;;;17.40;99.90;;;16.91;100.00;101030.66;4185087;28;20029;-78
2023/09/11 03:15:30;;;;;;;13.00;9.27;;;17.40;99.90;;;16.89;100.00;101017.56;4189795;28;20029;-78
2023/09/11 03:17:31;;;;;;;12.63;9.32;;;17.40;99.90;;;16.90;100.00;101029.03;4198889;28;20036;-77
2023/09/11 03:19:35;;;;;;;9.75;6.57;;;17.40;99.90;;;16.87;100.00;101024.91;4184794;28;20029;-78
2023/09/11 03:21:36;;;;;;;13.73;8.32;;;17.40;99.90;;;16.86;100.00;101023.25;4183698;28;20032;-78
2023/09/11 03:23:37;;;;;;;15.82;9.43;;;17.40;99.90;;;16.86;100.00;101011.78;4186044;28;20017;-78
2023/09/11 03:25:45;;;;;;;13.55;10.05;;;17.40;99.90;;;16.86;100.00;101022.44;4200147;28;20122;-78
2023/09/11 03:27:46;;;;;;;17.90;12.27;;;17.40;99.90;;;16.86;100.00;101022.44;4195272;28;20021;-78
2023/09/11 03:29:51;;;;;;;16.38;10.50;;;17.40;99.90;;;16.89;100.00;101016.72;4188247;28;20396;-78
2023/09/11 03:31:52;;;;;;;19.27;13.50;;;17.40;99.90;;;16.89;100.00;101022.06;4200225;28;20056;-78
2023/09/11 03:33:53;;;;;;;19.35;13.27;;;17.40;99.90;;;16.90;100.00;101021.88;4187034;28;20017;-78
2023/09/11 03:35:54;;;;;;;19.42;13.07;;;17.40;99.90;;;16.92;100.00;101019.00;4190833;28;20063;-78
2023/09/11 03:37:54;;;;;;;17.60;12.35;;;17.50;99.90;;;16.94;100.00;101017.78;4188166;28;20051;-78
2023/09/11 03:39:57;;;;;;;16.30;11.65;;;17.40;99.90;;;16.94;100.00;101008.97;4200562;28;20130;-78
2023/09/11 03:41:58;;;;;;;22.55;13.88;;;17.40;99.90;;;16.94;100.00;101007.13;4201445;28;20102;-78
2023/09/11 03:43:59;;;;;;;22.05;13.07;;;17.50;99.90;;;16.95;100.00;101007.97;4191948;28;20016;-78
2023/09/11 03:46:00;;;;;;;22.35;14.25;;;17.50;99.90;;;16.92;100.00;101001.19;4194140;28;20079;-78
2023/09/11 03:48:01;;;;;;;19.77;13.55;;;17.50;99.90;;;16.93;100.00;101008.19;4202628;28;20020;-78
2023/09/11 03:50:04;;;;;;;17.20;12.07;;;17.50;99.90;;;16.94;100.00;101008.97;4204489;28;20082;-78
2023/09/11 03:52:05;;;;;;;16.48;12.88;;;17.50;99.90;;;16.94;100.00;101017.78;4204539;28;20052;-78
2023/09/11 03:54:10;;;;;;;17.83;12.63;;;17.50;99.90;;;16.95;100.00;101010.63;4204560;28;20024;-78
2023/09/11 03:56:12;;;;;;;15.05;10.90;;;17.50;99.90;;;16.94;100.00;101008.97;4190130;28;20075;-77
2023/09/11 03:58:13;;;;;;;20.17;12.98;;;17.50;99.90;;;16.93;100.00;101008.19;4186726;28;20037;-78
2023/09/11 04:00:14;;;;;;;19.17;13.55;;;17.50;99.90;;;16.90;100.00;101007.72;4194359;28;20468;-78
2023/09/11 04:02:15;;;;;;;17.98;14.75;;;17.50;99.90;;;16.90;100.00;101013.88;4193093;28;20017;-78
2023/09/11 04:04:16;;;;;;;23.23;14.10;;;17.40;99.90;;;16.90;100.00;101003.22;4192135;28;20063;-78
2023/09/11 04:06:19;;;;;;;22.17;13.82;;;17.50;99.90;;;16.89;100.00;101014.06;4187970;28;20025;-78
2023/09/11 04:08:20;;;;;;;18.60;12.73;;;17.40;99.90;;;16.87;100.00;101010.78;4187757;28;20025;-78
2023/09/11 04:10:21;;;;;;;19.17;13.00;;;17.40;99.90;;;16.87;100.00;101018.75;4196157;28;20584;-78
2023/09/11 04:12:21;;;;;;;17.30;11.98;;;17.40;99.90;;;16.87;100.00;101016.09;4187675;28;20033;-77
2023/09/11 04:14:22;;;;;;;16.02;12.05;;;17.40;99.90;;;16.84;100.00;101013.81;4191235;28;20040;-78
2023/09/11 04:16:23;;;;;;;16.85;11.70;;;17.40;99.90;;;16.85;100.00;101024.25;4192555;28;20100;-78
2023/09/11 04:18:24;;;;;;;20.63;13.43;;;17.40;99.90;;;16.86;100.00;101028.59;4187384;28;20025;-78
2023/09/11 04:20:26;;;;;;;21.10;12.38;;;17.40;99.90;;;16.86;100.00;101028.59;4187419;28;20025;-78
2023/09/11 04:22:27;;;;;;;19.05;12.77;;;17.40;99.90;;;16.90;100.00;101026.38;4202133;28;20052;-78
2023/09/11 04:24:27;;;;;;;22.73;14.15;;;17.40;99.90;;;16.90;100.00;101024.53;4188616;28;20419;-78
2023/09/11 04:26:29;;;;;;;16.60;12.50;;;17.40;99.90;;;16.95;100.00;101031.94;4195518;28;20024;-78
2023/09/11 04:28:30;;;;;;;19.85;13.13;;;17.50;99.90;;;16.96;100.00;101028.28;4187397;28;20396;-78
2023/09/11 04:30:31;;;;;;;26.50;14.93;;;17.50;99.90;;;16.99;100.00;101030.56;4187224;28;20025;-77
2023/09/11 04:32:32;;;;;;;19.77;13.48;;;17.50;99.90;;;17.00;100.00;101041.03;4191467;28;20028;-78
2023/09/11 04:34:33;;;;;;;20.88;12.45;;;17.50;99.90;;;17.05;100.00;101038.59;4193742;28;20028;-78
2023/09/11 04:36:34;;;;;;;19.02;12.80;;;17.60;99.90;;;17.07;100.00;101047.25;4190198;28;20033;-78
2023/09/11 04:38:34;;;;;;;21.77;15.35;;;17.60;99.90;;;17.04;100.00;101041.47;4188800;28;20112;-78
2023/09/11 04:40:35;;;;;;;20.98;14.50;;;17.60;99.90;;;17.05;100.00;101043.13;4196218;28;20044;-78
2023/09/11 04:42:37;;;;;;;20.70;13.85;;;17.60;99.90;;;17.06;100.00;101048.25;4185939;28;20025;-78
2023/09/11 04:44:37;;;;;;;21.90;13.80;;;17.60;99.90;;;17.05;100.00;101043.94;4193984;28;20146;-78
2023/09/11 04:46:39;;;;;;;21.10;13.43;;;17.60;99.90;;;17.06;100.00;101045.59;4202393;28;20060;-78
2023/09/11 04:48:40;;;;;;;19.10;11.57;;;17.60;99.90;;;17.08;100.00;101051.53;4203668;28;20017;-78
2023/09/11 04:50:40;;;;;;;17.85;11.50;;;17.70;99.90;;;17.08;100.00;101046.22;4203783;28;20025;-78
2023/09/11 04:52:41;;;;;;;20.85;13.23;;;17.60;99.90;;;17.11;100.00;101050.38;4191502;28;20083;-78
2023/09/11 04:54:42;;;;;;;23.35;13.30;;;17.60;99.90;;;17.10;100.00;101035.38;4194654;28;20048;-78
2023/09/11 04:56:43;;;;;;;20.70;13.35;;;17.70;99.90;;;17.12;100.00;101054.66;4189955;28;20058;-78
2023/09/11 04:58:44;;;;;;;19.10;13.02;;;17.70;99.90;;;17.13;100.00;101056.31;4185753;28;20488;-78
2023/09/11 05:00:44;;;;;;;19.35;12.63;;;17.70;99.90;;;17.15;100.00;101056.94;4197577;28;20134;-78
2023/09/11 05:02:46;;;;;;;25.15;15.82;;;17.70;99.90;;;17.13;100.00;101061.66;4201908;28;20048;-78
2023/09/11 05:04:49;;;;;;;26.40;15.43;;;17.70;99.90;;;17.09;100.00;101055.88;4199123;28;20029;-78
2023/09/11 05:06:50;;;;;;;26.95;15.25;;;17.70;99.90;;;17.14;100.00;101073.97;4186768;28;20066;-78
2023/09/11 05:08:51;;;;;;;20.35;12.52;;;17.70;99.90;;;17.13;100.00;101075.81;4196818;28;20020;-78
2023/09/11 05:10:52;;;;;;;23.45;13.93;;;17.70;99.90;;;17.15;100.00;101076.44;4185596;28;20051;-78
2023/09/11 05:12:52;;;;;;;17.33;11.23;;;17.70;99.90;;;17.19;100.00;101076.06;4189713;28;20070;-78
2023/09/11 05:14:53;;;;;;;17.73;11.43;;;17.70;99.90;;;17.21;100.00;101076.69;4189432;28;20481;-78
2023/09/11 05:16:54;;;;;;;19.10;13.15;;;17.70;99.90;;;17.23;100.00;101072.00;4186759;28;20057;-78
2023/09/11 05:18:55;;;;;;;22.75;12.65;;;17.70;99.90;;;17.24;100.00;101073.63;4186330;28;20021;-78
2023/09/11 05:20:56;;;;;;;32.22;15.70;;;17.80;99.90;;;17.23;100.00;101070.16;4186627;28;20083;-78
2023/09/11 05:22:57;;;;;;;23.88;14.45;;;17.80;99.90;;;17.24;100.00;101062.97;4186844;28;20021;-78
2023/09/11 05:24:59;;;;;;;21.40;14.25;;;17.80;99.90;;;17.25;100.00;101073.47;4195508;28;20555;-78
2023/09/11 05:27:00;;;;;;;30.83;15.85;;;17.80;99.90;;;17.26;100.00;101063.63;4186324;28;20021;-78
2023/09/11 05:29:01;;;;;;;22.95;14.30;;;17.80;99.90;;;17.26;100.00;101069.78;4188695;28;20017;-78
2023/09/11 05:31:02;;;;;;;20.85;12.50;;;17.80;99.90;;;17.27;100.00;101063.41;4186457;28;20055;-77
2023/09/11 05:33:03;;;;;;;26.88;14.18;;;17.80;99.90;;;17.26;100.00;101071.63;4194748;28;20385;-78
2023/09/11 05:35:06;;;;;;;24.23;13.40;;;17.80;99.90;;;17.26;100.00;101079.63;4189258;28;20025;-78
2023/09/11 05:37:07;;;;;;;24.58;14.80;;;17.80;99.90;;;17.27;100.00;101089.25;4188037;28;20035;-77
2023/09/11 05:39:08;;;;;;;22.42;14.23;;;17.80;99.90;;;17.26;100.00;101087.63;4191597;28;20397;-78
2023/09/11 05:41:09;;;;;;;25.63;14.90;;;17.80;99.90;;;17.26;100.00;101088.44;4186208;28;20040;-78
2023/09/11 05:43:10;;;;;;;29.58;16.95;;;17.80;99.90;;;17.26;100.00;101087.63;4199144;28;20039;-78
2023/09/11 05:45:11;;;;;;;27.35;15.90;;;17.80;99.90;;;17.25;100.00;101089.47;4184943;28;20447;-78
2023/09/11 05:47:12;;;;;;;28.48;15.65;;;17.80;99.90;;;17.26;100.00;101093.78;4186162;28;20031;-78
2023/09/11 05:49:13;;;;;;;29.38;15.45;;;17.80;99.90;;;17.27;100.00;101094.59;4185919;28;20051;-78
2023/09/11 05:51:14;;;;;;;23.80;14.73;;;17.80;99.90;;;17.27;100.00;101087.41;4185799;28;20025;-78
2023/09/11 05:53:15;;;;;;;24.00;13.20;;;17.80;99.90;;;17.28;100.00;101088.25;4185951;28;20032;-78
2023/09/11 05:55:15;;;;;;;23.65;13.48;;;17.80;99.90;;;17.31;100.00;101095.88;4195905;28;20435;-78
2023/09/11 05:57:16;;;;;;;25.88;15.82;;;17.80;99.90;;;17.30;100.00;101091.53;4201194;28;20032;-78
2023/09/11 05:59:19;;;;;;;24.40;15.25;;;17.80;99.90;;;17.32;100.00;101097.53;4189160;28;20096;-78
2023/09/11 06:01:20;;;;;;;25.97;14.97;;;17.90;99.90;;;17.32;100.00;101095.69;4184495;28;20033;-78
2023/09/11 06:03:21;;;;;;;22.38;14.85;;;17.90;99.90;;;17.32;100.00;101094.84;4201084;28;20020;-78
2023/09/11 06:05:25;;;;;;;23.88;14.20;;;17.90;99.90;;;17.37;100.00;101101.25;4193458;28;20024;-78
2023/09/11 06:07:25;;;;;;;29.02;16.92;;;17.90;99.90;;;17.39;100.00;101098.38;4184687;28;20029;-78
2023/09/11 06:09:27;;;;;;;23.38;13.82;;;17.90;99.90;;;17.44;100.00;101107.47;4201265;28;20025;-78
2023/09/11 06:11:27;;;;;;;25.83;15.48;;;17.90;99.90;;;17.46;100.00;101100.13;4202324;28;20044;-78
2023/09/11 06:13:28;;;;;;;28.85;17.42;;;18.00;99.90;;;17.48;100.00;101108.75;4202459;28;20029;-78
2023/09/11 06:15:29;;;;;;;30.88;18.63;;;18.00;99.90;;;17.50;100.00;101114.69;4190265;28;20029;-78
2023/09/11 06:17:32;;;;;;;26.42;14.43;;;18.00;99.90;;;17.51;100.00;101113.69;4185353;28;20036;-78
2023/09/11 06:19:32;;;;;;;29.17;14.85;;;18.00;99.90;;;17.55;100.00;101109.66;4189725;28;20032;-78
2023/09/11 06:21:33;;;;;;;32.13;17.15;;;18.10;99.90;;;17.57;100.00;101123.63;4185546;28;20052;-78
2023/09/11 06:23:34;;;;;;;27.42;16.67;;;18.10;99.90;;;17.57;100.00;101120.13;4196127;28;20028;-78
2023/09/11 06:25:36;;;;;;;33.92;17.95;;;18.10;99.90;;;17.60;100.00;101117.91;4184225;28;20029;-78
2023/09/11 06:27:37;;;;;;;32.22;17.65;;;18.10;99.90;;;17.61;100.00;101119.56;4190324;28;20479;-78
2023/09/11 06:29:38;;;;;;;27.95;15.75;;;18.10;99.90;;;17.65;100.00;101114.69;4202112;28;20024;-78
2023/09/11 06:31:39;;;;;;;34.92;18.17;;;18.20;99.90;;;17.71;100.00;101115.75;4189691;28;20033;-78
2023/09/11 06:33:40;;;;;;;29.88;18.70;;;18.20;99.90;;;17.68;100.00;101103.63;4183980;28;20033;-78
2023/09/11 06:35:40;;;;;;;28.58;17.52;;;18.20;99.90;;;17.73;100.00;101116.38;4189770;28;20059;-78
2023/09/11 06:37:41;;;;;;;25.05;15.05;;;18.30;99.90;;;17.71;100.00;101108.56;4185324;28;20048;-77
2023/09/11 06:39:42;;;;;;;26.05;15.10;;;18.30;99.90;;;17.80;100.00;101107.38;4185229;28;20025;-77
2023/09/11 06:41:43;;;;;;;22.50;13.55;;;18.30;99.90;;;17.86;100.00;101103.13;4185382;28;20051;-78
2023/09/11 06:43:45;;;;;;;22.08;12.05;;;18.40;99.90;;;17.93;100.00;101099.47;4189624;28;20048;-78
2023/09/11 06:45:53;;;;;;;22.70;15.05;;;18.40;99.90;;;17.93;100.00;101091.47;4201971;28;20502;-78
2023/09/11 06:47:54;;;;;;;20.10;14.07;;;18.40;99.90;;;18.01;100.00;101093.19;4188559;28;20528;-78
2023/09/11 06:49:55;;;;;;;22.58;14.25;;;18.50;99.90;;;18.04;100.00;101076.78;4185205;28;20021;-78
2023/09/11 06:51:56;;;;;;;26.35;17.48;;;18.50;99.90;;;18.00;100.00;101078.16;4193006;28;20051;-78
2023/09/11 06:53:57;;;;;;;21.40;13.13;;;18.60;99.90;;;18.06;100.00;101080.88;4192278;28;20033;-78
2023/09/11 06:55:57;;;;;;;23.95;14.57;;;18.60;99.90;;;18.14;100.00;101078.03;4185333;28;20396;-78
2023/09/11 06:58:01;;;;;;;25.40;14.50;;;18.60;99.90;;;18.19;100.00;101085.44;4185129;28;20029;-78
2023/09/11 07:00:10;;;;;;;;;;;18.70;99.90;;;18.16;100.00;101077.84;4189604;28;20094;-78
2023/09/11 07:02:11;;;;;;;20.13;13.70;;;18.80;99.90;;;18.24;100.00;101085.72;4183991;28;19916;-78
2023/09/11 07:04:12;;;;;;;32.00;16.65;;;18.80;99.90;;;18.25;100.00;101082.00;4193178;28;20025;-78
2023/09/11 07:06:13;;;;;;;25.15;14.52;;;18.80;99.90;;;18.27;100.00;101087.97;4189732;28;20656;-78
2023/09/11 07:08:14;;;;;;;22.90;14.57;;;18.80;99.90;;;18.29;100.00;101093.94;4190308;28;20048;-78
2023/09/11 07:10:19;;;;;;;17.40;12.10;;;18.80;99.90;;;18.36;100.00;101096.66;4192430;28;20029;-77
2023/09/11 07:12:20;;;;;;;24.65;14.65;;;18.90;99.90;;;18.37;100.00;101096.44;4185261;28;20162;-78
2023/09/11 07:14:23;;;;;;;27.92;16.88;;;18.90;99.90;;;18.31;100.00;101094.56;4185089;28;20032;-79
2023/09/11 07:16:24;;;;;;;20.90;14.20;;;18.90;99.90;;;18.36;100.00;101102.00;4190557;28;20025;-79
2023/09/11 07:18:26;;;;;;;19.25;12.43;;;18.90;99.90;;;18.42;100.00;101107.38;4190136;28;20021;-79
2023/09/11 07:20:27;;;;;;;20.30;13.23;;;19.00;99.90;;;18.50;100.00;101111.75;4186738;28;20044;-78
2023/09/11 07:22:28;;;;;;;23.27;14.65;;;18.90;99.90;;;18.48;100.00;101106.59;4185085;28;20017;-78
2023/09/11 07:24:29;;;;;;;20.23;12.65;;;19.00;99.90;;;18.50;100.00;101103.72;4183771;28;20463;-79
2023/09/11 07:26:30;;;;;;;18.45;11.73;;;19.00;99.90;;;18.53;100.00;101104.16;4185013;28;20029;-78
2023/09/11 07:28:33;;;;;;;25.60;15.57;;;19.00;99.90;;;18.51;100.00;101106.22;4190706;28;20074;-78
2023/09/11 07:30:33;;;;;;;23.17;15.45;;;19.10;99.90;;;18.54;100.00;101113.84;4183745;28;20021;-78
2023/09/11 07:32:34;;;;;;;21.40;14.55;;;19.10;99.90;;;18.58;100.00;101106.22;4206440;28;20089;-78
2023/09/11 07:34:35;;;;;;;20.00;13.90;;;19.10;99.90;;;18.60;100.00;101110.38;4201586;28;20028;-79
2023/09/11 07:36:36;;;;;;;16.33;12.18;;;19.10;99.90;;;18.70;100.00;101113.47;4186786;28;20021;-79
2023/09/11 07:38:44;;;;;;;21.55;13.38;;;19.20;99.90;;;18.77;100.00;101113.50;4189279;28;20053;-78
2023/09/11 07:40:45;;;;;;;20.17;13.35;;;19.30;99.90;;;18.85;100.00;101112.50;4190045;28;20028;-78
2023/09/11 07:42:45;;;;;;;18.85;12.13;;;19.40;99.90;;;18.88;100.00;101112.09;4184794;28;20048;-79
2023/09/11 07:44:46;;;;;;;18.42;12.32;;;19.40;99.90;;;18.91;100.00;101107.16;4197544;28;20014;-79
2023/09/11 07:46:48;;;;;;;15.57;10.77;;;19.40;99.90;;;19.00;100.00;101099.78;4199974;28;20029;-78
2023/09/11 07:48:50;;;;;;;14.55;10.55;;;19.50;99.90;;;19.12;100.00;101099.00;4194974;28;20017;-79
2023/09/11 07:50:56;;;;;;;24.27;14.77;;;19.60;99.90;;;19.16;100.00;101089.56;4183754;28;20025;-78
2023/09/11 07:52:57;;;;;;;20.38;12.25;;;19.60;99.90;;;19.23;100.00;101094.91;4185937;28;20028;-78
2023/09/11 07:54:58;;;;;;;21.70;13.80;;;19.70;99.90;;;19.27;100.00;101102.31;4184872;28;20033;-78
2023/09/11 07:57:01;;;;;;;21.48;13.93;;;19.80;99.90;;;19.29;100.00;101094.09;4184864;28;20497;-77
2023/09/11 07:59:02;;;;;;;18.80;12.38;;;19.80;99.90;;;19.30;100.00;101095.72;4185677;28;20032;-78
2023/09/11 08:01:03;;;;;;;19.23;12.77;;;19.80;99.90;;;19.35;100.00;101090.59;4184589;28;20037;-79
2023/09/11 08:03:04;;;;;;;19.17;12.90;;;19.90;99.90;;;19.39;100.00;101094.53;4199775;28;20502;-79
2023/09/11 08:05:05;;;;;;;23.08;13.70;;;19.90;99.90;;;19.32;100.00;101094.50;4183608;28;20097;-79
2023/09/11 08:07:06;;;;;;;21.45;13.55;;;19.90;99.90;;;19.41;100.00;101108.56;4193211;28;20024;-79
2023/09/11 08:09:07;;;;;;;19.58;12.77;;;19.90;99.90;;;19.41;100.00;101105.88;4196166;28;20020;-79
2023/09/11 08:11:19;;;;;;;21.20;14.00;;;19.90;99.90;;;19.43;100.00;101109.16;4185168;28;20031;-79
2023/09/11 08:13:20;;;;;;;18.27;12.40;;;19.90;99.90;;;19.47;100.00;101098.88;4184714;28;20033;-79
2023/09/11 08:15:21;;;;;;;19.15;12.27;;;20.00;99.90;;;19.54;100.00;101097.84;4186082;28;20036;-79